createdAt,value
2023-04-18T00:01:44.928Z,12.29
2023-04-18T00:04:12.432Z,12.39
2023-04-18T00:06:39.532Z,12.24
2023-04-18T00:09:06.282Z,12.40
2023-04-18T00:11:33.030Z,12.59
2023-04-18T00:13:59.637Z,12.70
2023-04-18T00:16:27.284Z,12.89
2023-04-18T00:18:54.061Z,12.95
2023-04-18T00:21:20.682Z,12.89
2023-04-18T00:23:47.392Z,12.71
2023-04-18T00:26:13.993Z,12.89
2023-04-18T00:28:40.584Z,12.89
2023-04-18T00:31:07.310Z,12.73
2023-04-18T00:33:34.566Z,12.75
2023-04-18T00:36:01.213Z,12.80
2023-04-18T00:38:27.823Z,12.83
2023-04-18T00:40:54.480Z,12.92
2023-04-18T00:43:23.492Z,12.97
2023-04-18T00:45:50.221Z,12.59
2023-04-18T00:48:16.907Z,12.61
2023-04-18T00:50:43.594Z,12.41
2023-04-18T00:53:10.199Z,12.18
2023-04-18T00:55:36.967Z,11.85
2023-04-18T00:58:03.716Z,12.01
2023-04-18T01:00:31.065Z,11.99
2023-04-18T01:02:57.853Z,12.11
2023-04-18T01:05:24.665Z,12.16
2023-04-18T01:07:51.274Z,12.01
2023-04-18T01:10:17.912Z,12.11
2023-04-18T01:12:44.518Z,12.12
2023-04-18T01:15:11.284Z,11.93
2023-04-18T01:17:38.098Z,11.74
2023-04-18T01:20:05.073Z,11.78
2023-04-18T01:22:32.085Z,11.83
2023-04-18T01:24:58.760Z,11.87
2023-04-18T01:27:25.437Z,12.01
2023-04-18T01:29:52.337Z,11.85
2023-04-18T01:32:19.069Z,11.91
2023-04-18T01:34:45.706Z,11.93
2023-04-18T01:37:12.417Z,11.99
2023-04-18T01:39:39.058Z,12.09
2023-04-18T01:42:05.763Z,12.12
2023-04-18T01:44:32.468Z,12.13
2023-04-18T01:46:59.240Z,12.05
2023-04-18T01:49:25.993Z,12.24
2023-04-18T01:51:52.698Z,12.34
2023-04-18T01:54:19.365Z,12.46
2023-04-18T01:56:46.016Z,12.46
2023-04-18T01:59:12.708Z,12.54
2023-04-18T02:01:39.371Z,12.55
2023-04-18T02:04:06.086Z,12.35
2023-04-18T02:06:32.750Z,12.46
2023-04-18T02:08:59.412Z,12.46
2023-04-18T02:11:26.040Z,12.60
2023-04-18T02:13:52.620Z,12.58
2023-04-18T02:16:19.331Z,12.52
2023-04-18T02:18:46.040Z,12.52
2023-04-18T02:21:12.674Z,12.29
2023-04-18T02:23:39.402Z,12.23
2023-04-18T02:26:06.014Z,12.23
2023-04-18T02:28:35.132Z,12.47
2023-04-18T02:31:04.569Z,12.56
2023-04-18T02:33:31.208Z,12.68
2023-04-18T02:35:57.896Z,12.82
2023-04-18T02:38:24.682Z,12.95
2023-04-18T02:40:51.282Z,12.88
2023-04-18T02:43:17.991Z,12.63
2023-04-18T02:45:44.677Z,12.72
2023-04-18T02:48:11.630Z,12.84
2023-04-18T02:50:38.252Z,12.90
2023-04-18T02:53:04.887Z,13.00
2023-04-18T02:55:32.625Z,13.08
2023-04-18T02:57:59.242Z,13.09
2023-04-18T03:00:25.884Z,13.18
2023-04-18T03:02:52.670Z,13.20
2023-04-18T03:05:19.608Z,13.23
2023-04-18T03:07:46.258Z,13.16
2023-04-18T03:10:12.931Z,13.16
2023-04-18T03:12:39.653Z,13.13
2023-04-18T03:15:06.867Z,13.10
2023-04-18T03:17:33.694Z,12.90
2023-04-18T03:20:00.374Z,12.96
2023-04-18T03:22:27.032Z,13.00
2023-04-18T03:24:53.657Z,13.04
2023-04-18T03:27:20.401Z,12.83
2023-04-18T03:29:47.063Z,12.90
2023-04-18T03:32:13.655Z,12.91
2023-04-18T03:34:40.328Z,12.91
2023-04-18T03:37:06.933Z,12.95
2023-04-18T03:39:33.568Z,12.90
2023-04-18T03:42:00.492Z,12.91
2023-04-18T03:44:27.221Z,12.93
2023-04-18T03:46:54.016Z,12.89
2023-04-18T03:49:20.656Z,12.88
2023-04-18T03:51:47.349Z,12.88
2023-04-18T03:54:14.777Z,12.83
2023-04-18T03:56:41.598Z,12.67
2023-04-18T03:59:08.255Z,12.61
2023-04-18T04:01:35.066Z,12.72
2023-04-18T04:04:02.632Z,12.65
2023-04-18T04:06:31.742Z,12.56
2023-04-18T04:08:58.370Z,12.59
2023-04-18T04:11:25.040Z,12.58
2023-04-18T04:13:51.678Z,12.48
2023-04-18T04:16:18.340Z,12.44
2023-04-18T04:18:45.175Z,12.44
2023-04-18T04:21:11.882Z,12.51
2023-04-18T04:23:38.557Z,12.50
2023-04-18T04:26:05.222Z,12.48
2023-04-18T04:28:32.041Z,12.38
2023-04-18T04:30:58.700Z,12.43
2023-04-18T04:33:25.695Z,12.46
2023-04-18T04:35:52.332Z,12.45
2023-04-18T04:38:18.965Z,12.33
2023-04-18T04:40:45.702Z,12.44
2023-04-18T04:43:12.345Z,12.42
2023-04-18T04:45:39.041Z,12.40
2023-04-18T04:48:06.025Z,12.35
2023-04-18T04:50:40.529Z,12.39
2023-04-18T04:53:10.291Z,12.38
2023-04-18T04:55:37.059Z,12.40
2023-04-18T04:58:03.659Z,12.43
2023-04-18T05:00:30.266Z,12.35
2023-04-18T05:02:57.138Z,12.35
2023-04-18T05:05:23.980Z,12.38
2023-04-18T05:07:50.751Z,12.41
2023-04-18T05:10:17.446Z,12.17
2023-04-18T05:12:44.148Z,12.32
2023-04-18T05:15:12.088Z,12.37
2023-04-18T05:17:38.980Z,12.39
2023-04-18T05:20:06.326Z,12.39
2023-04-18T05:22:32.991Z,12.43
2023-04-18T05:24:59.685Z,12.47
2023-04-18T05:27:26.302Z,12.51
2023-04-18T05:29:52.915Z,12.54
2023-04-18T05:32:20.910Z,12.61
2023-04-18T05:34:48.334Z,12.65
2023-04-18T05:37:15.018Z,12.71
2023-04-18T05:39:41.738Z,12.75
2023-04-18T05:42:08.417Z,12.79
2023-04-18T05:44:35.100Z,12.88
2023-04-18T05:47:01.823Z,12.88
2023-04-18T05:49:28.428Z,12.94
2023-04-18T05:51:55.040Z,13.03
2023-04-18T05:54:21.696Z,13.06
2023-04-18T05:56:48.387Z,13.17
2023-04-18T05:59:14.994Z,13.19
2023-04-18T06:01:41.586Z,13.18
2023-04-18T06:04:08.317Z,13.26
2023-04-18T06:06:35.524Z,13.27
2023-04-18T06:09:02.615Z,13.30
2023-04-18T06:11:29.254Z,13.40
2023-04-18T06:13:55.958Z,13.39
2023-04-18T06:16:22.724Z,13.43
2023-04-18T06:18:49.490Z,13.51
2023-04-18T06:21:16.179Z,13.48
2023-04-18T06:23:42.807Z,13.46
2023-04-18T06:26:09.445Z,13.72
2023-04-18T06:28:36.075Z,13.89
2023-04-18T06:31:03.032Z,14.01
2023-04-18T06:33:29.707Z,14.15
2023-04-18T06:35:56.522Z,14.21
2023-04-18T06:38:23.556Z,14.19
2023-04-18T06:40:50.340Z,14.28
2023-04-18T06:43:17.015Z,14.41
2023-04-18T06:45:43.733Z,14.35
2023-04-18T06:48:10.518Z,14.45
2023-04-18T06:50:37.409Z,14.44
2023-04-18T06:53:04.151Z,14.45
2023-04-18T06:55:30.909Z,14.47
2023-04-18T06:57:57.590Z,14.52
2023-04-18T07:00:24.430Z,14.55
2023-04-18T07:02:51.222Z,14.65
2023-04-18T07:05:18.027Z,14.65
2023-04-18T07:07:44.831Z,14.75
2023-04-18T07:10:11.706Z,14.77
2023-04-18T07:12:39.404Z,14.85
2023-04-18T07:15:06.492Z,14.91
2023-04-18T07:17:33.641Z,15.00
2023-04-18T07:20:00.436Z,14.93
2023-04-18T07:22:27.037Z,14.69
2023-04-18T07:24:53.626Z,14.78
2023-04-18T07:27:20.352Z,14.74
2023-04-18T07:29:47.087Z,14.94
2023-04-18T07:32:13.834Z,15.06
2023-04-18T07:34:40.496Z,15.13
2023-04-18T07:37:07.192Z,15.00
2023-04-18T07:39:33.835Z,15.10
2023-04-18T07:42:00.645Z,15.15
2023-04-18T07:44:27.329Z,15.25
2023-04-18T07:46:53.927Z,15.38
2023-04-18T07:49:20.564Z,15.43
2023-04-18T07:51:47.210Z,15.64
2023-04-18T07:54:13.930Z,15.28
2023-04-18T07:56:40.527Z,15.27
2023-04-18T07:59:07.181Z,15.42
2023-04-18T08:01:34.096Z,15.50
2023-04-18T08:04:00.934Z,15.62
2023-04-18T08:06:28.424Z,15.75
2023-04-18T08:08:55.055Z,15.88
2023-04-18T08:11:21.777Z,15.83
2023-04-18T08:13:48.407Z,15.84
2023-04-18T08:16:17.033Z,15.88
2023-04-18T08:18:44.195Z,15.89
2023-04-18T08:21:10.844Z,15.88
2023-04-18T08:23:37.530Z,15.84
2023-04-18T08:26:04.173Z,15.84
2023-04-18T08:28:30.803Z,15.74
2023-04-18T08:30:57.513Z,15.65
2023-04-18T08:33:24.167Z,15.52
2023-04-18T08:35:50.992Z,15.64
2023-04-18T08:38:18.261Z,15.58
2023-04-18T08:40:45.098Z,15.50
2023-04-18T08:43:12.351Z,15.56
2023-04-18T08:45:39.081Z,15.66
2023-04-18T08:48:05.947Z,15.67
2023-04-18T08:50:32.824Z,15.77
2023-04-18T08:53:00.970Z,15.61
2023-04-18T08:55:27.677Z,15.78
2023-04-18T08:57:55.252Z,15.79
2023-04-18T09:00:22.250Z,15.85
2023-04-18T09:02:48.919Z,15.86
2023-04-18T09:05:16.970Z,15.86
2023-04-18T09:07:43.592Z,15.77
2023-04-18T09:10:10.505Z,15.86
2023-04-18T09:12:46.373Z,15.59
2023-04-18T09:15:13.829Z,15.82
2023-04-18T09:17:47.612Z,15.91
2023-04-18T09:20:14.233Z,16.09
2023-04-18T09:22:53.771Z,16.07
2023-04-18T09:25:32.309Z,16.13
2023-04-18T09:27:59.027Z,16.08
2023-04-18T09:30:44.009Z,16.13
2023-04-18T09:33:10.714Z,16.21
2023-04-18T09:35:37.520Z,16.25
2023-04-18T09:38:04.572Z,16.23
2023-04-18T09:40:31.369Z,16.25
2023-04-18T09:42:58.206Z,16.28
2023-04-18T09:45:25.027Z,16.31
2023-04-18T09:47:52.415Z,16.13
2023-04-18T09:50:19.521Z,16.28
2023-04-18T09:52:46.847Z,16.34
2023-04-18T09:55:15.952Z,16.42
2023-04-18T09:57:46.894Z,16.49
2023-04-18T10:00:18.217Z,16.30
2023-04-18T10:02:51.986Z,16.35
2023-04-18T10:05:21.149Z,16.27
2023-04-18T10:07:48.816Z,16.27
2023-04-18T10:10:15.615Z,16.42
2023-04-18T10:12:42.211Z,16.46
2023-04-18T10:15:09.686Z,16.52
2023-04-18T10:18:03.773Z,16.61
2023-04-18T10:20:33.035Z,16.65
2023-04-18T10:22:59.809Z,16.63
2023-04-18T10:25:38.418Z,16.56
2023-04-18T10:28:08.659Z,16.64
2023-04-18T10:30:38.218Z,16.67
2023-04-18T10:33:30.973Z,16.70
2023-04-18T10:36:10.616Z,16.55
2023-04-18T10:38:37.386Z,16.62
2023-04-18T10:41:17.427Z,16.72
2023-04-18T10:44:09.111Z,16.73
2023-04-18T10:46:36.664Z,16.71
2023-04-18T10:49:24.026Z,16.71
2023-04-18T10:51:59.869Z,16.83
2023-04-18T10:54:30.063Z,16.87
2023-04-18T10:57:00.678Z,16.88
2023-04-18T10:59:27.326Z,16.98
2023-04-18T11:01:57.787Z,17.05
2023-04-18T11:04:24.598Z,17.22
2023-04-18T11:06:52.190Z,17.28
2023-04-18T11:09:18.908Z,17.40
2023-04-18T11:11:46.507Z,17.42
2023-04-18T11:14:13.443Z,17.45
2023-04-18T11:16:40.435Z,17.31
2023-04-18T11:19:22.476Z,17.42
2023-04-18T11:21:49.465Z,17.42
2023-04-18T11:24:23.141Z,17.37
2023-04-18T11:26:49.854Z,17.38
2023-04-18T11:29:17.761Z,17.40
2023-04-18T11:31:54.012Z,17.33
2023-04-18T11:34:22.555Z,17.48
2023-04-18T11:36:49.837Z,17.56
2023-04-18T11:39:16.624Z,17.58
2023-04-18T11:41:43.456Z,17.65
2023-04-18T11:44:10.160Z,17.70
2023-04-18T11:46:40.077Z,17.70
2023-04-18T11:49:06.961Z,17.81
2023-04-18T11:51:34.393Z,17.99
2023-04-18T11:54:01.013Z,18.04
2023-04-18T11:56:27.683Z,18.13
2023-04-18T11:58:54.391Z,18.17
2023-04-18T12:01:22.734Z,17.95
2023-04-18T12:04:05.863Z,17.83
2023-04-18T12:06:51.889Z,17.78
2023-04-18T12:09:18.774Z,17.91
2023-04-18T12:12:03.137Z,18.05
2023-04-18T12:14:29.857Z,18.21
2023-04-18T12:16:56.487Z,17.96
2023-04-18T12:19:27.023Z,18.32
2023-04-18T12:22:00.448Z,18.37
2023-04-18T12:24:27.917Z,18.56
2023-04-18T12:26:55.341Z,18.67
2023-04-18T12:29:21.977Z,18.57
2023-04-18T12:31:48.672Z,18.76
2023-04-18T12:34:15.606Z,18.91
2023-04-18T12:36:42.557Z,18.93
2023-04-18T12:39:09.164Z,18.93
2023-04-18T12:41:36.010Z,19.02
2023-04-18T12:44:02.609Z,19.09
2023-04-18T12:46:29.397Z,19.08
2023-04-18T12:48:56.086Z,19.22
2023-04-18T12:51:23.713Z,19.30
2023-04-18T12:53:50.350Z,19.29
2023-04-18T12:56:17.044Z,19.37
2023-04-18T12:58:43.688Z,19.24
2023-04-18T13:01:10.331Z,19.11
2023-04-18T13:03:37.141Z,19.20
2023-04-18T13:06:03.974Z,19.24
2023-04-18T13:08:30.694Z,19.21
2023-04-18T13:10:57.969Z,19.26
2023-04-18T13:13:24.584Z,19.33
2023-04-18T13:15:51.187Z,19.34
2023-04-18T13:18:17.864Z,19.26
2023-04-18T13:20:44.513Z,19.37
2023-04-18T13:23:11.134Z,19.50
2023-04-18T13:25:38.370Z,19.45
2023-04-18T13:28:05.211Z,19.48
2023-04-18T13:30:31.824Z,19.58
2023-04-18T13:32:58.464Z,19.52
2023-04-18T13:35:25.076Z,19.63
2023-04-18T13:37:51.758Z,19.70
2023-04-18T13:40:18.793Z,19.70
2023-04-18T13:42:45.385Z,19.80
2023-04-18T13:45:12.055Z,19.85
2023-04-18T13:47:38.713Z,19.92
2023-04-18T13:50:05.897Z,19.90
2023-04-18T13:52:32.572Z,19.86
2023-04-18T13:54:59.215Z,19.80
2023-04-18T13:57:25.864Z,19.65
2023-04-18T13:59:52.589Z,19.65
2023-04-18T14:02:19.364Z,19.60
2023-04-18T14:04:46.110Z,19.75
2023-04-18T14:07:12.920Z,19.83
2023-04-18T14:09:39.746Z,19.98
2023-04-18T14:12:06.478Z,20.06
2023-04-18T14:14:33.437Z,20.15
2023-04-18T14:17:00.109Z,20.16
2023-04-18T14:19:26.944Z,20.33
2023-04-18T14:21:53.575Z,20.51
2023-04-18T14:24:20.995Z,20.62
2023-04-18T14:26:47.693Z,20.87
2023-04-18T14:29:14.535Z,21.02
2023-04-18T14:31:44.437Z,21.03
2023-04-18T14:34:11.192Z,21.04
2023-04-18T14:36:37.879Z,21.09
2023-04-18T14:39:04.552Z,21.19
2023-04-18T14:41:31.245Z,21.23
2023-04-18T14:43:57.912Z,21.33
2023-04-18T14:46:24.588Z,21.67
2023-04-18T14:48:51.227Z,21.73
2023-04-18T14:51:17.910Z,21.97
2023-04-18T14:53:44.715Z,21.92
2023-04-18T14:56:11.520Z,22.00
2023-04-18T14:58:38.139Z,21.82
2023-04-18T15:01:05.422Z,21.68
2023-04-18T15:03:32.330Z,21.78
2023-04-18T15:05:59.118Z,21.75
2023-04-18T15:08:25.744Z,22.02
2023-04-18T15:10:52.378Z,22.07
2023-04-18T15:13:19.200Z,22.17
2023-04-18T15:15:52.801Z,22.28
2023-04-18T15:18:19.513Z,22.51
2023-04-18T15:20:46.203Z,22.70
2023-04-18T15:23:13.229Z,22.94
2023-04-18T15:25:40.679Z,23.19
2023-04-18T15:28:07.350Z,23.41
2023-04-18T15:30:33.987Z,23.62
2023-04-18T15:33:00.687Z,23.69
2023-04-18T15:35:27.359Z,22.79
2023-04-18T15:37:53.978Z,22.18
2023-04-18T15:40:20.617Z,21.89
2023-04-18T15:42:47.292Z,21.63
2023-04-18T15:45:13.943Z,21.38
2023-04-18T15:47:40.687Z,21.07
2023-04-18T15:50:10.377Z,20.98
2023-04-18T15:52:37.011Z,22.33
2023-04-18T15:55:03.749Z,22.04
2023-04-18T15:57:30.920Z,21.50
2023-04-18T15:59:57.536Z,22.48
2023-04-18T16:02:24.588Z,22.83
2023-04-18T16:04:51.365Z,22.23
2023-04-18T16:07:18.336Z,21.77
2023-04-18T16:09:45.008Z,21.45
2023-04-18T16:12:11.641Z,21.13
2023-04-18T16:14:38.301Z,20.86
2023-04-18T16:17:04.947Z,20.64
2023-04-18T16:19:35.059Z,20.41
2023-04-18T16:22:03.087Z,20.21
2023-04-18T16:24:29.752Z,20.17
2023-04-18T16:26:56.438Z,20.11
2023-04-18T16:29:23.085Z,20.11
2023-04-18T16:31:50.928Z,19.92
2023-04-18T16:34:17.628Z,19.91
2023-04-18T16:36:44.361Z,19.89
2023-04-18T16:39:11.467Z,19.82
2023-04-18T16:41:38.433Z,19.81
2023-04-18T16:44:05.155Z,19.67
2023-04-18T16:46:32.036Z,19.66
2023-04-18T16:48:58.865Z,19.78
2023-04-18T16:51:25.517Z,19.68
2023-04-18T16:53:52.769Z,19.82
2023-04-18T16:56:19.394Z,19.68
2023-04-18T16:58:46.099Z,19.61
2023-04-18T17:01:12.765Z,19.70
2023-04-18T17:03:39.831Z,19.67
2023-04-18T17:06:06.914Z,19.73
2023-04-18T17:08:33.805Z,19.74
2023-04-18T17:11:00.560Z,19.76
2023-04-18T17:13:27.298Z,19.74
2023-04-18T17:15:54.050Z,19.84
2023-04-18T17:18:20.873Z,19.83
2023-04-18T17:20:47.636Z,19.91
2023-04-18T17:23:14.356Z,19.95
2023-04-18T17:25:41.109Z,19.92
2023-04-18T17:28:07.770Z,19.85
2023-04-18T17:30:34.595Z,19.84
2023-04-18T17:33:01.221Z,19.65
2023-04-18T17:35:27.899Z,19.48
2023-04-18T17:37:54.586Z,19.40
2023-04-18T17:40:21.263Z,19.41
2023-04-18T17:42:47.872Z,19.26
2023-04-18T17:45:14.641Z,19.14
2023-04-18T17:47:41.407Z,19.03
2023-04-18T17:50:08.918Z,19.05
2023-04-18T17:52:35.624Z,19.04
2023-04-18T17:55:02.285Z,18.94
2023-04-18T17:57:28.896Z,18.74
2023-04-18T17:59:55.517Z,18.61
2023-04-18T18:02:22.323Z,18.57
2023-04-18T18:04:49.564Z,18.54
2023-04-18T18:07:16.219Z,18.40
2023-04-18T18:09:46.019Z,18.18
2023-04-18T18:12:12.796Z,18.10
2023-04-18T18:14:39.450Z,18.06
2023-04-18T18:17:06.284Z,17.96
2023-04-18T18:19:34.827Z,17.92
2023-04-18T18:22:01.541Z,17.93
2023-04-18T18:24:28.215Z,17.68
2023-04-18T18:26:55.095Z,17.63
2023-04-18T18:29:21.708Z,17.52
2023-04-18T18:31:48.441Z,17.34
2023-04-18T18:34:15.061Z,17.33
2023-04-18T18:36:41.702Z,17.43
2023-04-18T18:39:08.349Z,17.38
2023-04-18T18:41:34.975Z,17.39
2023-04-18T18:44:01.618Z,17.31
2023-04-18T18:46:28.331Z,17.27
2023-04-18T18:48:54.980Z,17.23
2023-04-18T18:51:21.647Z,17.27
2023-04-18T18:53:48.501Z,17.08
2023-04-18T18:56:15.489Z,17.11
2023-04-18T18:58:42.114Z,16.99
2023-04-18T19:01:08.729Z,17.00
2023-04-18T19:03:35.497Z,17.05
2023-04-18T19:06:02.246Z,16.94
2023-04-18T19:08:29.072Z,16.80
2023-04-18T19:10:55.680Z,16.90
2023-04-18T19:13:22.479Z,16.98
2023-04-18T19:15:49.134Z,16.97
2023-04-18T19:18:15.845Z,16.76
2023-04-18T19:20:42.518Z,16.85
2023-04-18T19:23:09.140Z,16.69
2023-04-18T19:25:35.774Z,16.65
2023-04-18T19:28:02.545Z,16.67
2023-04-18T19:30:29.459Z,16.72
2023-04-18T19:32:56.208Z,16.67
2023-04-18T19:35:23.025Z,16.75
2023-04-18T19:37:49.713Z,16.69
2023-04-18T19:40:16.445Z,16.64
2023-04-18T19:42:43.543Z,16.71
2023-04-18T19:45:10.687Z,16.67
2023-04-18T19:47:37.348Z,16.72
2023-04-18T19:50:04.326Z,16.63
2023-04-18T19:52:31.121Z,16.56
2023-04-18T19:54:57.817Z,16.54
2023-04-18T19:57:24.472Z,16.54
2023-04-18T19:59:51.151Z,16.29
2023-04-18T20:02:17.867Z,16.31
2023-04-18T20:04:44.795Z,16.38
2023-04-18T20:07:11.573Z,16.27
2023-04-18T20:09:38.269Z,16.30
2023-04-18T20:12:04.909Z,16.24
2023-04-18T20:14:31.952Z,16.23
2023-04-18T20:16:58.640Z,16.32
2023-04-18T20:19:25.328Z,16.28
2023-04-18T20:21:52.287Z,16.15
2023-04-18T20:24:19.010Z,16.16
2023-04-18T20:26:45.765Z,15.96
2023-04-18T20:29:12.731Z,16.05
2023-04-18T20:31:39.583Z,15.97
2023-04-18T20:34:06.235Z,15.98
2023-04-18T20:36:32.932Z,16.21
2023-04-18T20:38:59.668Z,16.23
2023-04-18T20:41:26.312Z,16.09
2023-04-18T20:43:52.944Z,15.93
2023-04-18T20:46:19.668Z,16.00
2023-04-18T20:48:46.815Z,16.01
2023-04-18T20:51:13.570Z,15.93
2023-04-18T20:53:40.263Z,15.88
2023-04-18T20:56:06.937Z,15.92
2023-04-18T20:58:33.553Z,15.97
2023-04-18T21:01:00.285Z,15.84
2023-04-18T21:03:27.325Z,15.82
2023-04-18T21:05:54.267Z,15.85
2023-04-18T21:08:22.176Z,15.80
2023-04-18T21:10:52.263Z,15.72
2023-04-18T21:13:21.084Z,15.72
2023-04-18T21:15:50.935Z,15.87
2023-04-18T21:18:18.883Z,15.91
2023-04-18T21:20:47.000Z,16.12
2023-04-18T21:23:13.604Z,16.25
2023-04-18T21:25:40.275Z,16.21
2023-04-18T21:28:06.879Z,15.89
2023-04-18T21:30:33.891Z,16.10
2023-04-18T21:33:00.666Z,16.19
2023-04-18T21:35:27.389Z,16.21
2023-04-18T21:37:54.127Z,16.26
2023-04-18T21:40:20.814Z,16.22
2023-04-18T21:42:49.737Z,16.21
2023-04-18T21:45:16.986Z,16.28
2023-04-18T21:47:43.833Z,16.29
2023-04-18T21:50:10.882Z,16.32
2023-04-18T21:52:37.670Z,16.27
2023-04-18T21:55:04.649Z,16.23
2023-04-18T21:57:31.457Z,16.15
2023-04-18T21:59:58.170Z,16.02
2023-04-18T22:02:27.213Z,15.72
2023-04-18T22:04:53.955Z,15.79
2023-04-18T22:07:20.638Z,15.77
2023-04-18T22:09:47.393Z,15.82
2023-04-18T22:12:14.010Z,15.64
2023-04-18T22:14:40.708Z,15.77
2023-04-18T22:17:07.342Z,15.67
2023-04-18T22:19:33.941Z,15.70
2023-04-18T22:22:00.596Z,15.68
2023-04-18T22:24:27.287Z,15.64
2023-04-18T22:26:53.911Z,15.66
2023-04-18T22:29:20.630Z,15.68
2023-04-18T22:31:47.358Z,15.64
2023-04-18T22:34:14.357Z,15.72
2023-04-18T22:36:41.322Z,15.55
2023-04-18T22:39:07.990Z,15.68
2023-04-18T22:41:34.656Z,15.61
2023-04-18T22:44:01.487Z,15.67
2023-04-18T22:46:28.245Z,15.70
2023-04-18T22:48:55.156Z,15.70
2023-04-18T22:51:21.893Z,15.73
2023-04-18T22:53:48.646Z,15.76
2023-04-18T22:56:16.078Z,15.63
2023-04-18T22:58:42.763Z,15.65
2023-04-18T23:01:09.469Z,15.67
2023-04-18T23:03:36.261Z,15.51
2023-04-18T23:06:03.066Z,15.43
2023-04-18T23:08:29.812Z,15.33
2023-04-18T23:10:56.460Z,15.52
2023-04-18T23:13:23.135Z,15.36
2023-04-18T23:15:49.873Z,15.34
2023-04-18T23:18:16.477Z,15.26
2023-04-18T23:20:43.081Z,15.38
2023-04-18T23:23:09.692Z,15.30
2023-04-18T23:25:36.387Z,15.23
2023-04-18T23:28:03.004Z,15.00
2023-04-18T23:30:29.689Z,15.03
2023-04-18T23:32:56.402Z,14.93
2023-04-18T23:35:23.139Z,14.96
2023-04-18T23:37:49.870Z,14.93
2023-04-18T23:40:16.522Z,14.73
2023-04-18T23:42:43.299Z,14.81
2023-04-18T23:45:10.285Z,14.89
2023-04-18T23:47:37.075Z,14.85
2023-04-18T23:50:03.925Z,14.82
2023-04-18T23:52:30.571Z,14.75
2023-04-18T23:55:00.696Z,14.71
2023-04-18T23:57:27.341Z,14.72
2023-04-18T23:59:54.006Z,14.71
